createdAt,value
2024-03-11T00:02:54.135Z,99401.69
2024-03-11T00:05:57.155Z,99409.81
2024-03-11T00:08:59.960Z,99403.81
2024-03-11T00:12:02.965Z,99406.00
2024-03-11T00:15:08.483Z,99398.78
2024-03-11T00:18:11.899Z,99409.56
2024-03-11T00:21:14.622Z,99404.63
2024-03-11T00:24:17.738Z,99401.16
2024-03-11T00:27:20.620Z,99403.00
2024-03-11T00:30:25.019Z,99412.75
2024-03-11T00:33:29.869Z,99400.06
2024-03-11T00:36:33.102Z,99420.25
2024-03-11T00:39:36.033Z,99420.63
2024-03-11T00:42:41.850Z,99420.41
2024-03-11T00:45:44.829Z,99412.47
2024-03-11T00:48:48.408Z,99418.22
2024-03-11T00:51:51.197Z,99410.09
2024-03-11T00:54:54.309Z,99415.22
2024-03-11T00:57:56.947Z,99419.31
2024-03-11T01:01:00.030Z,99420.06
2024-03-11T01:04:03.250Z,99427.06
2024-03-11T01:07:17.456Z,99430.66
2024-03-11T01:10:25.515Z,99431.25
2024-03-11T01:13:28.628Z,99427.19
2024-03-11T01:16:31.530Z,99443.13
2024-03-11T01:19:34.385Z,99442.03
2024-03-11T01:22:38.559Z,99433.28
2024-03-11T01:25:41.843Z,99440.75
2024-03-11T01:28:44.799Z,99449.69
2024-03-11T01:31:47.853Z,99444.63
2024-03-11T01:34:51.227Z,99428.81
2024-03-11T01:37:54.153Z,99427.34
2024-03-11T01:40:57.804Z,99434.66
2024-03-11T01:44:02.171Z,99422.44
2024-03-11T01:47:05.372Z,99426.53
2024-03-11T01:50:09.471Z,99422.88
2024-03-11T01:53:12.199Z,99418.88
2024-03-11T01:56:16.827Z,99420.97
2024-03-11T01:59:22.142Z,99417.94
2024-03-11T02:02:25.514Z,99414.50
2024-03-11T02:05:29.581Z,99411.47
2024-03-11T02:08:32.552Z,99402.78
2024-03-11T02:11:35.769Z,99388.59
2024-03-11T02:14:38.840Z,99402.84
2024-03-11T02:17:44.149Z,99407.59
2024-03-11T02:20:49.317Z,99409.44
2024-03-11T02:23:52.352Z,99414.75
2024-03-11T02:26:55.396Z,99408.69
2024-03-11T02:29:58.491Z,99416.50
2024-03-11T02:33:01.509Z,99413.47
2024-03-11T02:36:06.166Z,99407.09
2024-03-11T02:39:09.157Z,99402.25
2024-03-11T02:42:13.959Z,99402.16
2024-03-11T02:45:20.841Z,99403.53
2024-03-11T02:48:25.048Z,99402.88
2024-03-11T02:51:28.312Z,99403.72
2024-03-11T02:54:33.602Z,99397.53
2024-03-11T02:57:36.438Z,99416.75
2024-03-11T03:00:39.616Z,99397.13
2024-03-11T03:03:42.455Z,99393.88
2024-03-11T03:06:45.450Z,99395.41
2024-03-11T03:09:48.362Z,99387.28
2024-03-11T03:12:51.494Z,99397.66
2024-03-11T03:15:55.140Z,99401.97
2024-03-11T03:18:58.228Z,99404.44
2024-03-11T03:22:00.938Z,99415.09
2024-03-11T03:25:04.799Z,99408.41
2024-03-11T03:28:07.418Z,99408.41
2024-03-11T03:31:10.767Z,99407.37
2024-03-11T03:34:13.621Z,99411.47
2024-03-11T03:37:16.949Z,99411.34
2024-03-11T03:40:19.835Z,99398.13
2024-03-11T03:43:22.977Z,99403.94
2024-03-11T03:46:26.562Z,99414.25
2024-03-11T03:49:29.364Z,99416.81
2024-03-11T03:52:32.190Z,99411.53
2024-03-11T03:55:35.943Z,99413.78
2024-03-11T03:58:38.602Z,99413.16
2024-03-11T04:01:41.854Z,99415.69
2024-03-11T04:04:46.105Z,99417.47
2024-03-11T04:07:48.985Z,99407.97
2024-03-11T04:10:52.235Z,99405.41
2024-03-11T04:13:55.066Z,99410.88
2024-03-11T04:16:57.940Z,99416.16
2024-03-11T04:20:00.841Z,99411.22
2024-03-11T04:23:09.088Z,99405.53
2024-03-11T04:26:12.641Z,99398.31
2024-03-11T04:29:16.610Z,99400.50
2024-03-11T04:32:19.256Z,99398.34
2024-03-11T04:35:34.046Z,99404.38
2024-03-11T04:38:38.030Z,99398.06
2024-03-11T04:41:47.773Z,99396.53
2024-03-11T04:44:52.535Z,99399.00
2024-03-11T04:47:59.958Z,99399.00
2024-03-11T04:51:06.049Z,99397.56
2024-03-11T04:54:09.895Z,99396.38
2024-03-11T04:57:12.480Z,99394.78
2024-03-11T05:00:16.655Z,99399.09
2024-03-11T05:03:20.024Z,99398.06
2024-03-11T05:06:23.163Z,99407.06
2024-03-11T05:09:25.685Z,99404.38
2024-03-11T05:12:29.401Z,99409.19
2024-03-11T05:15:33.798Z,99412.75
2024-03-11T05:18:37.243Z,99406.28
2024-03-11T05:21:40.157Z,99403.34
2024-03-11T05:24:43.163Z,99402.66
2024-03-11T05:27:49.370Z,99400.38
2024-03-11T05:30:52.859Z,99398.34
2024-03-11T05:33:55.655Z,99401.53
2024-03-11T05:36:58.535Z,99396.06
2024-03-11T05:40:01.387Z,99387.97
2024-03-11T05:43:04.470Z,99403.94
2024-03-11T05:46:07.438Z,99400.28
2024-03-11T05:49:14.222Z,99404.59
2024-03-11T05:52:17.195Z,99409.50
2024-03-11T05:55:23.473Z,99408.97
2024-03-11T05:58:30.028Z,99409.91
2024-03-11T06:01:33.806Z,99410.34
2024-03-11T06:04:36.961Z,99417.00
2024-03-11T06:07:39.952Z,99415.28
2024-03-11T06:10:43.405Z,99422.41
2024-03-11T06:13:46.497Z,99421.78
2024-03-11T06:16:49.406Z,99430.66
2024-03-11T06:19:52.230Z,99432.38
2024-03-11T06:22:55.436Z,99434.28
2024-03-11T06:25:58.472Z,99439.03
2024-03-11T06:29:04.602Z,99441.12
2024-03-11T06:32:09.169Z,99445.59
2024-03-11T06:35:15.151Z,99451.53
2024-03-11T06:38:18.123Z,99459.22
2024-03-11T06:41:21.336Z,99457.12
2024-03-11T06:44:33.168Z,99450.22
2024-03-11T06:47:42.780Z,99458.81
2024-03-11T06:50:46.184Z,99464.56
2024-03-11T06:53:49.451Z,99456.62
2024-03-11T06:56:52.483Z,99451.97
2024-03-11T06:59:56.017Z,99458.66
2024-03-11T07:02:59.492Z,99459.53
2024-03-11T07:06:03.866Z,99458.53
2024-03-11T07:09:08.550Z,99457.81
2024-03-11T07:12:11.634Z,99468.72
2024-03-11T07:15:14.948Z,99458.81
2024-03-11T07:18:18.602Z,99457.63
2024-03-11T07:21:21.877Z,99456.47
2024-03-11T07:24:24.975Z,99462.81
2024-03-11T07:27:27.777Z,99462.84
2024-03-11T07:30:30.984Z,99451.81
2024-03-11T07:33:33.615Z,99457.38
2024-03-11T07:36:37.143Z,99471.19
2024-03-11T07:39:41.457Z,99471.38
2024-03-11T07:42:44.673Z,99468.22
2024-03-11T07:45:47.518Z,99472.06
2024-03-11T07:48:50.439Z,99470.44
2024-03-11T07:51:53.335Z,99475.94
2024-03-11T07:54:56.161Z,99481.50
2024-03-11T07:57:58.754Z,99483.34
2024-03-11T08:01:03.200Z,99492.69
2024-03-11T08:04:09.804Z,99492.13
2024-03-11T08:07:12.721Z,99484.47
2024-03-11T08:10:17.244Z,99476.34
2024-03-11T08:13:20.047Z,99477.75
2024-03-11T08:16:23.237Z,99484.38
2024-03-11T08:19:26.003Z,99472.69
2024-03-11T08:22:29.130Z,99472.03
2024-03-11T08:25:33.425Z,99470.78
2024-03-11T08:28:41.065Z,99476.44
2024-03-11T08:31:45.794Z,99485.78
2024-03-11T08:34:49.699Z,99488.78
2024-03-11T08:37:52.807Z,99483.37
2024-03-11T08:40:56.115Z,99479.19
2024-03-11T08:43:59.965Z,99471.88
2024-03-11T08:47:07.017Z,99471.12
2024-03-11T08:50:14.671Z,99467.03
2024-03-11T08:53:17.975Z,99474.31
2024-03-11T08:56:22.839Z,99480.34
2024-03-11T08:59:26.138Z,99476.91
2024-03-11T09:02:28.941Z,99481.88
2024-03-11T09:05:32.727Z,99475.13
2024-03-11T09:08:36.958Z,99487.16
2024-03-11T09:11:39.878Z,99485.06
2024-03-11T09:14:44.960Z,99486.31
2024-03-11T09:17:53.258Z,99489.47
2024-03-11T09:20:57.086Z,99492.97
2024-03-11T09:24:00.261Z,99491.06
2024-03-11T09:27:04.947Z,99490.47
2024-03-11T09:30:08.794Z,99492.44
2024-03-11T09:33:13.550Z,99487.62
2024-03-11T09:36:16.817Z,99484.69
2024-03-11T09:39:20.571Z,99484.38
2024-03-11T09:42:28.827Z,99487.72
2024-03-11T09:45:36.255Z,99504.66
2024-03-11T09:48:40.951Z,99508.44
2024-03-11T09:51:47.153Z,99506.63
2024-03-11T09:54:50.346Z,99494.78
2024-03-11T09:57:54.846Z,99489.34
2024-03-11T10:00:59.438Z,99493.25
2024-03-11T10:04:03.546Z,99497.50
2024-03-11T10:07:09.527Z,99512.50
2024-03-11T10:10:14.563Z,99501.03
2024-03-11T10:13:30.280Z,99501.25
2024-03-11T10:16:33.687Z,99490.44
2024-03-11T10:19:47.278Z,99493.53
2024-03-11T10:22:50.196Z,99504.19
2024-03-11T10:26:18.838Z,99496.13
2024-03-11T10:29:33.434Z,99492.13
2024-03-11T10:32:43.323Z,99489.66
2024-03-11T10:35:46.724Z,99486.88
2024-03-11T10:38:50.089Z,99496.66
2024-03-11T10:41:54.628Z,99491.09
2024-03-11T10:44:58.850Z,99484.69
2024-03-11T10:48:04.045Z,99480.34
2024-03-11T10:51:10.496Z,99474.34
2024-03-11T10:54:24.783Z,99473.97
2024-03-11T10:57:32.902Z,99455.53
2024-03-11T11:00:38.887Z,99441.38
2024-03-11T11:03:42.431Z,99429.44
2024-03-11T11:06:56.505Z,99429.16
2024-03-11T11:10:02.918Z,99418.12
2024-03-11T11:13:06.935Z,99416.50
2024-03-11T11:16:11.751Z,99406.13
2024-03-11T11:19:19.012Z,99395.34
2024-03-11T11:22:21.809Z,99369.75
2024-03-11T11:25:40.881Z,99384.47
2024-03-11T11:28:45.974Z,99404.66
2024-03-11T11:32:09.847Z,99418.09
2024-03-11T11:35:32.940Z,99424.16
2024-03-11T11:38:36.474Z,99411.88
2024-03-11T11:41:40.837Z,99398.72
2024-03-11T11:44:46.128Z,99394.69
2024-03-11T11:47:51.885Z,99410.47
2024-03-11T11:51:00.436Z,99434.38
2024-03-11T11:54:36.042Z,99445.03
2024-03-11T11:57:42.953Z,99437.47
2024-03-11T12:00:58.474Z,99423.19
2024-03-11T12:04:08.692Z,99420.69
2024-03-11T12:07:12.236Z,99406.37
2024-03-11T12:10:15.856Z,99402.09
2024-03-11T12:13:19.082Z,99403.72
2024-03-11T12:16:28.840Z,99402.50
2024-03-11T12:19:31.836Z,99390.63
2024-03-11T12:22:34.928Z,99393.91
2024-03-11T12:25:38.361Z,99385.09
2024-03-11T12:29:14.338Z,99374.88
2024-03-11T12:32:17.511Z,99373.03
2024-03-11T12:35:20.324Z,99367.28
2024-03-11T12:38:23.523Z,99354.38
2024-03-11T12:41:45.403Z,99340.78
2024-03-11T12:44:57.497Z,99333.75
2024-03-11T12:48:01.820Z,99304.16
2024-03-11T12:51:06.837Z,99287.06
2024-03-11T12:54:20.087Z,99268.31
2024-03-11T12:57:25.346Z,99265.59
2024-03-11T13:00:30.416Z,99259.63
2024-03-11T13:03:33.745Z,99279.03
2024-03-11T13:06:38.570Z,99284.59
2024-03-11T13:09:42.469Z,99293.34
2024-03-11T13:12:45.427Z,99277.69
2024-03-11T13:15:49.495Z,99270.56
2024-03-11T13:18:56.355Z,99271.91
2024-03-11T13:22:00.796Z,99285.63
2024-03-11T13:25:06.816Z,99290.41
2024-03-11T13:28:13.289Z,99314.78
2024-03-11T13:31:17.407Z,99312.34
2024-03-11T13:34:23.153Z,99307.13
2024-03-11T13:37:26.135Z,99300.53
2024-03-11T13:40:30.188Z,99278.59
2024-03-11T13:43:34.277Z,99281.09
2024-03-11T13:46:38.940Z,99284.56
2024-03-11T13:49:47.344Z,99277.19
2024-03-11T13:52:50.392Z,99269.69
2024-03-11T13:55:53.222Z,99262.81
2024-03-11T13:58:56.298Z,99261.00
2024-03-11T14:01:59.141Z,99255.38
2024-03-11T14:05:04.594Z,99241.47
2024-03-11T14:08:07.968Z,99243.91
2024-03-11T14:11:12.008Z,99240.34
2024-03-11T14:14:15.263Z,99239.22
2024-03-11T14:17:18.422Z,99227.94
2024-03-11T14:20:21.583Z,99220.16
2024-03-11T14:23:25.854Z,99212.59
2024-03-11T14:26:28.684Z,99215.72
2024-03-11T14:29:36.160Z,99209.16
2024-03-11T14:32:40.091Z,99220.84
2024-03-11T14:35:43.358Z,99210.06
2024-03-11T14:38:47.517Z,99197.97
2024-03-11T14:41:50.473Z,99204.75
2024-03-11T14:44:53.809Z,99196.38
2024-03-11T14:47:57.715Z,99191.06
2024-03-11T14:51:01.141Z,99187.16
2024-03-11T14:54:05.161Z,99191.47
2024-03-11T14:57:08.833Z,99186.94
2024-03-11T15:00:12.652Z,99189.81
2024-03-11T15:03:17.034Z,99197.22
2024-03-11T15:06:22.200Z,99188.03
2024-03-11T15:09:28.629Z,99192.72
2024-03-11T15:12:35.697Z,99196.81
2024-03-11T15:15:42.355Z,99187.41
2024-03-11T15:18:48.393Z,99186.63
2024-03-11T15:21:52.772Z,99192.13
2024-03-11T15:24:56.656Z,99191.13
2024-03-11T15:27:59.697Z,99194.22
2024-03-11T15:31:05.378Z,99193.16
2024-03-11T15:34:08.479Z,99183.16
2024-03-11T15:37:12.236Z,99189.31
2024-03-11T15:40:16.720Z,99187.06
2024-03-11T15:43:19.938Z,99183.00
2024-03-11T15:46:24.372Z,99183.63
2024-03-11T15:49:30.610Z,99183.81
2024-03-11T15:52:35.784Z,99185.66
2024-03-11T15:55:38.951Z,99185.25
2024-03-11T15:58:41.900Z,99189.53
2024-03-11T16:01:48.816Z,99186.66
2024-03-11T16:04:53.797Z,99188.94
2024-03-11T16:07:56.696Z,99183.00
2024-03-11T16:10:59.886Z,99183.19
2024-03-11T16:14:02.532Z,99182.41
2024-03-11T16:17:05.578Z,99185.06
2024-03-11T16:20:10.954Z,99193.44
2024-03-11T16:23:15.686Z,99200.19
2024-03-11T16:26:18.508Z,99189.16
2024-03-11T16:29:21.610Z,99202.44
2024-03-11T16:32:26.533Z,99206.53
2024-03-11T16:35:35.940Z,99206.72
2024-03-11T16:38:39.557Z,99209.56
2024-03-11T16:41:44.568Z,99206.06
2024-03-11T16:44:47.829Z,99202.97
2024-03-11T16:47:50.917Z,99184.72
2024-03-11T16:50:53.965Z,99181.62
2024-03-11T16:53:57.232Z,99191.84
2024-03-11T16:57:00.391Z,99192.22
2024-03-11T17:00:10.708Z,99189.53
2024-03-11T17:03:13.969Z,99195.00
2024-03-11T17:06:17.247Z,99197.78
2024-03-11T17:09:21.821Z,99205.34
2024-03-11T17:12:26.794Z,99199.78
2024-03-11T17:15:32.474Z,99204.47
2024-03-11T17:18:36.874Z,99205.88
2024-03-11T17:21:40.571Z,99203.03
2024-03-11T17:24:43.669Z,99198.31
2024-03-11T17:27:46.628Z,99185.25
2024-03-11T17:30:54.391Z,99194.66
2024-03-11T17:34:01.017Z,99183.81
2024-03-11T17:37:05.741Z,99188.31
2024-03-11T17:40:22.875Z,99189.72
2024-03-11T17:43:26.537Z,99189.59
2024-03-11T17:46:32.284Z,99176.94
2024-03-11T17:49:35.193Z,99175.28
2024-03-11T17:52:46.829Z,99176.94
2024-03-11T17:55:49.932Z,99180.84
2024-03-11T17:58:52.665Z,99184.47
2024-03-11T18:01:56.006Z,99186.53
2024-03-11T18:05:00.279Z,99172.41
2024-03-11T18:08:08.144Z,99181.62
2024-03-11T18:11:11.489Z,99174.09
2024-03-11T18:14:14.403Z,99186.13
2024-03-11T18:17:18.710Z,99190.63
2024-03-11T18:20:30.522Z,99190.78
2024-03-11T18:23:33.972Z,99197.53
2024-03-11T18:26:38.672Z,99190.19
2024-03-11T18:29:43.424Z,99186.37
2024-03-11T18:32:48.781Z,99193.13
2024-03-11T18:35:52.015Z,99188.19
2024-03-11T18:38:54.923Z,99179.09
2024-03-11T18:41:58.771Z,99182.59
2024-03-11T18:45:01.415Z,99183.84
2024-03-11T18:48:04.962Z,99177.75
2024-03-11T18:51:08.689Z,99172.66
2024-03-11T18:54:12.552Z,99166.31
2024-03-11T18:57:18.162Z,99180.84
2024-03-11T19:00:24.356Z,99188.00
2024-03-11T19:03:27.344Z,99184.72
2024-03-11T19:06:30.887Z,99194.13
2024-03-11T19:09:36.127Z,99185.56
2024-03-11T19:12:39.753Z,99190.22
2024-03-11T19:15:44.542Z,99195.53
2024-03-11T19:18:47.803Z,99196.38
2024-03-11T19:21:51.770Z,99199.81
2024-03-11T19:24:55.554Z,99194.09
2024-03-11T19:27:59.996Z,99196.31
2024-03-11T19:31:04.331Z,99206.50
2024-03-11T19:34:10.391Z,99205.66
2024-03-11T19:37:40.353Z,99204.25
2024-03-11T19:41:04.021Z,99206.66
2024-03-11T19:44:25.957Z,99207.91
2024-03-11T19:48:10.325Z,99212.97
2024-03-11T19:51:50.546Z,99212.16
2024-03-11T19:55:12.280Z,99216.28
2024-03-11T19:59:00.041Z,99219.53
2024-03-11T20:02:02.587Z,99220.53
2024-03-11T20:05:48.535Z,99212.75
2024-03-11T20:09:15.202Z,99220.09
2024-03-11T20:12:46.340Z,99226.66
2024-03-11T20:16:38.316Z,99228.47
2024-03-11T20:20:21.465Z,99237.84
2024-03-11T20:23:58.391Z,99238.47
2024-03-11T20:27:07.320Z,99234.84
2024-03-11T20:30:19.099Z,99242.81
2024-03-11T20:33:23.051Z,99236.72
2024-03-11T20:36:25.810Z,99238.31
2024-03-11T20:39:29.130Z,99232.78
2024-03-11T20:42:35.078Z,99236.47
2024-03-11T20:45:40.347Z,99251.12
2024-03-11T20:48:43.612Z,99252.16
2024-03-11T20:51:47.187Z,99240.97
2024-03-11T20:54:50.120Z,99246.66
2024-03-11T20:57:54.463Z,99251.38
2024-03-11T21:00:59.587Z,99253.59
2024-03-11T21:04:02.799Z,99251.94
2024-03-11T21:07:07.422Z,99256.44
2024-03-11T21:10:10.870Z,99247.88
2024-03-11T21:13:15.927Z,99253.56
2024-03-11T21:16:23.230Z,99249.66
2024-03-11T21:19:37.645Z,99240.09
2024-03-11T21:22:41.958Z,99251.41
2024-03-11T21:25:51.185Z,99260.38
2024-03-11T21:28:54.252Z,99262.03
2024-03-11T21:31:57.030Z,99262.22
2024-03-11T21:34:59.984Z,99258.19
2024-03-11T21:38:13.761Z,99257.97
2024-03-11T21:41:24.750Z,99258.59
2024-03-11T21:44:27.358Z,99258.78
2024-03-11T21:47:30.271Z,99263.56
2024-03-11T21:50:33.201Z,99259.22
2024-03-11T21:53:37.722Z,99262.66
2024-03-11T21:56:40.524Z,99257.34
2024-03-11T21:59:47.542Z,99257.97
2024-03-11T22:02:52.459Z,99268.34
2024-03-11T22:05:55.262Z,99260.00
2024-03-11T22:09:00.695Z,99256.13
2024-03-11T22:12:03.691Z,99262.00
2024-03-11T22:15:08.637Z,99260.72
2024-03-11T22:18:11.776Z,99263.38
2024-03-11T22:21:16.157Z,99261.13
2024-03-11T22:24:20.600Z,99263.19
2024-03-11T22:27:23.404Z,99251.53
2024-03-11T22:30:26.635Z,99257.84
2024-03-11T22:33:30.463Z,99256.25
2024-03-11T22:36:34.111Z,99258.91
2024-03-11T22:39:37.997Z,99263.78
2024-03-11T22:42:41.054Z,99268.44
2024-03-11T22:45:43.779Z,99258.66
2024-03-11T22:48:46.734Z,99262.72
2024-03-11T22:51:49.577Z,99265.59
2024-03-11T22:54:52.653Z,99263.72
2024-03-11T22:57:55.521Z,99266.34
2024-03-11T23:01:07.209Z,99270.84
2024-03-11T23:04:10.294Z,99261.28
2024-03-11T23:07:14.661Z,99273.75
2024-03-11T23:10:18.174Z,99274.97
2024-03-11T23:13:21.441Z,99278.38
2024-03-11T23:16:24.099Z,99279.94
2024-03-11T23:19:27.290Z,99280.47
2024-03-11T23:22:30.248Z,99286.03
2024-03-11T23:25:37.612Z,99277.87
2024-03-11T23:28:40.385Z,99285.69
2024-03-11T23:31:45.562Z,99281.78
2024-03-11T23:34:48.945Z,99279.44
2024-03-11T23:37:52.071Z,99289.56
2024-03-11T23:40:54.966Z,99280.91
2024-03-11T23:44:00.198Z,99273.47
2024-03-11T23:47:03.023Z,99276.56
2024-03-11T23:50:06.753Z,99280.41
2024-03-11T23:53:09.703Z,99274.09
2024-03-11T23:56:13.356Z,99269.09
2024-03-11T23:59:16.268Z,99278.09
